Terminal Aerodrome Forecast
Issued by NWS

Home | Current Version | Previous Version | Text Only | Print | Product List | Glossary Off
Versions: 1 2 3 4 5 6 7 8 9 10 11 12 13 14

000
FTUS43 KIWX 260527
TAFSBN
TAF
KSBN 260527Z 2606/2706 17010KT P6SM BKN250
     FM261400 17012G22KT P6SM BKN100
     FM270000 18010KT P6SM OVC035=

USA.gov is the U.S. government's official web portal to all federal, state and local government web resources and services.